Flugplatz Braunschweig Wolfsburg

Bericht für EDVE

vom 22.11. um 15:20 UTC

Wind 9 kt aus 220°

Sichtweite 10 km oder mehr

gute Sicht, keine Wolken < 5000 ft, keine CB, keine Wettererscheinungen (CAVOK)

Temperatur 10.0°C

Taupunkt 7.0°C

Luftfeuchtigkeit 82%

Luftdruck 1007 hPa

EDVE 221520Z 22009KT CAVOK 10/07 Q1007

Prognose für EDVE

vom 22.11. um 14:00 UTC

Zwischen 15:00 UTC und 21:00 UTC

Wind 11 kt aus 220°

Sichtweite 10 km oder mehr

keine signifikanten Wettererscheinungen

keine Wolken

TAF EDVE 221400Z 2215/2221 22011KT CAVOK
Impressum